Time;durP1;ratioP1;P1;durP2;ratioP2;P2;SDS_P1;SDS_P2;PMS_P1;PMS_P2;Temp;Humidity;BMP_temperature;BMP_pressure;BME280_temperature;BME280_humidity;BME280_pressure;Samples;Min_cycle;Max_cycle;Signal;HPM_P1;HPM_P2
2022/07/24 00:02:04;;;;;;;5.22;2.80;;;16.00;99.90;;;;;;5053617;28;20056;-75
2022/07/24 00:04:31;;;;;;;3.60;2.63;;;16.00;99.90;;;;;;5054145;28;20077;-75
2022/07/24 00:06:57;;;;;;;4.50;2.90;;;16.00;99.90;;;;;;5053127;28;20094;-75
2022/07/24 00:09:26;;;;;;;3.72;2.72;;;16.00;99.90;;;;;;5054745;28;20455;-76
2022/07/24 00:11:53;;;;;;;3.85;3.05;;;15.90;99.90;;;;;;5052644;28;20127;-75
2022/07/24 00:14:20;;;;;;;6.40;3.20;;;15.90;99.90;;;;;;5053949;28;20076;-75
2022/07/24 00:16:46;;;;;;;4.93;2.92;;;15.80;99.90;;;;;;5053996;28;20049;-75
2022/07/24 00:19:13;;;;;;;4.90;3.08;;;15.90;99.90;;;;;;5054732;28;20084;-74
2022/07/24 00:21:40;;;;;;;4.15;3.08;;;15.90;99.90;;;;;;5054651;28;20045;-74
2022/07/24 00:24:08;;;;;;;7.07;3.40;;;15.80;99.90;;;;;;5053307;28;20061;-74
2022/07/24 00:26:36;;;;;;;4.45;2.90;;;15.80;99.90;;;;;;5052325;28;20091;-75
2022/07/24 00:29:04;;;;;;;5.28;3.00;;;15.80;99.90;;;;;;5053451;28;20064;-74
2022/07/24 00:31:32;;;;;;;5.03;3.50;;;15.80;99.90;;;;;;5053312;28;20076;-75
2022/07/24 00:33:58;;;;;;;3.97;2.90;;;15.80;99.90;;;;;;5053393;28;20049;-75
2022/07/24 00:36:25;;;;;;;6.93;3.85;;;15.80;99.90;;;;;;5052663;28;20124;-74
2022/07/24 00:38:52;;;;;;;5.40;3.15;;;15.80;99.90;;;;;;5052805;28;20044;-74
2022/07/24 00:41:19;;;;;;;5.72;3.03;;;15.80;99.90;;;;;;5052960;28;20051;-74
2022/07/24 00:44:06;;;;;;;4.78;3.38;;;15.70;99.90;;;;;;5052639;28;20106;-74
2022/07/24 00:46:34;;;;;;;4.10;3.17;;;15.70;99.90;;;;;;5053075;28;20049;-74
2022/07/24 00:49:00;;;;;;;7.93;3.17;;;15.70;99.90;;;;;;5053947;28;20449;-75
2022/07/24 00:51:28;;;;;;;4.60;3.30;;;15.70;99.90;;;;;;5053535;28;20386;-75
2022/07/24 00:53:55;;;;;;;4.72;3.15;;;15.70;99.90;;;;;;5052168;28;20129;-75
2022/07/24 00:56:22;;;;;;;4.32;3.13;;;15.70;99.90;;;;;;5053629;28;20053;-75
2022/07/24 00:58:49;;;;;;;5.22;3.40;;;15.70;99.90;;;;;;5053883;28;20049;-75
2022/07/24 01:01:18;;;;;;;4.47;3.05;;;15.60;99.90;;;;;;5051781;28;20108;-75
2022/07/24 01:03:45;;;;;;;7.00;3.88;;;15.70;99.90;;;;;;5052483;28;20552;-75
2022/07/24 01:06:12;;;;;;;5.22;3.42;;;15.60;99.90;;;;;;5053331;28;20045;-75
2022/07/24 01:08:40;;;;;;;3.90;3.00;;;15.60;99.90;;;;;;5051227;28;20053;-75
2022/07/24 01:11:07;;;;;;;5.32;3.03;;;15.60;99.90;;;;;;5052582;28;20401;-75
2022/07/24 01:13:34;;;;;;;4.88;3.13;;;15.60;99.90;;;;;;5053563;28;20056;-75
2022/07/24 01:16:01;;;;;;;5.57;3.55;;;15.60;99.90;;;;;;5052614;28;20452;-74
2022/07/24 01:18:29;;;;;;;5.70;3.88;;;15.60;99.90;;;;;;5052151;28;20087;-74
2022/07/24 01:20:57;;;;;;;6.32;3.30;;;15.60;99.90;;;;;;5053283;28;20041;-75
2022/07/24 01:23:24;;;;;;;6.55;3.75;;;15.60;99.90;;;;;;5052519;28;20053;-75
2022/07/24 01:25:52;;;;;;;4.20;3.58;;;15.60;99.90;;;;;;5052406;28;20098;-75
2022/07/24 01:28:19;;;;;;;5.63;3.03;;;15.60;99.90;;;;;;5052612;28;20076;-75
2022/07/24 01:30:46;;;;;;;5.35;3.20;;;15.60;99.90;;;;;;5052184;28;20114;-75
2022/07/24 01:33:13;;;;;;;7.10;3.72;;;15.60;99.90;;;;;;5053421;28;20465;-75
2022/07/24 01:35:40;;;;;;;5.43;3.33;;;15.60;99.90;;;;;;5050853;28;20131;-75
2022/07/24 01:38:09;;;;;;;6.75;3.42;;;15.60;99.90;;;;;;5051974;28;20048;-76
2022/07/24 01:40:36;;;;;;;5.97;3.72;;;15.60;99.90;;;;;;5052087;28;20199;-75
2022/07/24 01:43:03;;;;;;;5.95;3.67;;;15.60;99.90;;;;;;5051221;28;20084;-75
2022/07/24 01:45:30;;;;;;;4.68;3.75;;;15.60;99.90;;;;;;5051874;28;20049;-75
2022/07/24 01:47:57;;;;;;;5.13;3.45;;;15.60;99.90;;;;;;5053258;28;20041;-75
2022/07/24 01:50:25;;;;;;;4.55;3.38;;;15.60;99.90;;;;;;5051813;28;20145;-76
2022/07/24 01:52:52;;;;;;;5.15;3.40;;;15.60;99.90;;;;;;5051910;28;20526;-75
2022/07/24 01:55:21;;;;;;;6.15;3.47;;;15.60;99.90;;;;;;5053162;28;20049;-77
2022/07/24 01:57:48;;;;;;;5.95;3.00;;;15.60;99.90;;;;;;5052369;28;20501;-76
2022/07/24 02:00:16;;;;;;;5.38;3.83;;;15.60;99.90;;;;;;5051816;28;20048;-75
2022/07/24 02:02:44;;;;;;;6.70;3.60;;;15.50;99.90;;;;;;5051865;28;20573;-75
2022/07/24 02:05:12;;;;;;;6.97;3.67;;;15.60;99.90;;;;;;5052157;28;20099;-76
2022/07/24 02:07:39;;;;;;;4.35;3.28;;;15.60;99.90;;;;;;5052495;28;20095;-75
2022/07/24 02:10:08;;;;;;;5.65;3.95;;;15.50;99.90;;;;;;5051327;28;20523;-75
2022/07/24 02:12:36;;;;;;;5.15;4.15;;;15.50;99.90;;;;;;5051075;28;20049;-76
2022/07/24 02:15:03;;;;;;;5.97;3.38;;;15.50;99.90;;;;;;5051924;28;20053;-75
2022/07/24 02:17:30;;;;;;;7.65;4.43;;;15.50;99.90;;;;;;5051814;28;20045;-75
2022/07/24 02:19:57;;;;;;;5.95;3.92;;;15.50;99.90;;;;;;5052956;28;20132;-75
2022/07/24 02:22:24;;;;;;;6.32;4.13;;;15.50;99.90;;;;;;5052946;28;20095;-75
2022/07/24 02:24:50;;;;;;;7.82;3.75;;;15.50;99.90;;;;;;5050714;28;20053;-74
2022/07/24 02:27:17;;;;;;;7.25;4.13;;;15.50;99.90;;;;;;5052295;28;20053;-76
2022/07/24 02:29:45;;;;;;;5.47;3.83;;;15.50;99.90;;;;;;5052998;28;20049;-75
2022/07/24 02:32:12;;;;;;;6.63;3.92;;;15.50;99.90;;;;;;5052236;28;20041;-74
2022/07/24 02:34:39;;;;;;;7.60;4.20;;;15.40;99.90;;;;;;5052788;28;20136;-75
2022/07/24 02:37:06;;;;;;;5.55;4.28;;;15.40;99.90;;;;;;5052376;28;20080;-76
2022/07/24 02:39:33;;;;;;;5.78;4.47;;;15.40;99.90;;;;;;5055639;28;20110;-76
2022/07/24 02:42:00;;;;;;;8.00;4.32;;;15.40;99.90;;;;;;5056536;28;20057;-75
2022/07/24 02:44:26;;;;;;;4.85;4.28;;;15.40;99.90;;;;;;5055452;28;20056;-74
2022/07/24 02:46:55;;;;;;;5.55;4.13;;;15.40;99.90;;;;;;5054525;28;20049;-74
2022/07/24 02:49:21;;;;;;;7.78;4.40;;;15.40;99.90;;;;;;5056823;28;20057;-74
2022/07/24 02:51:48;;;;;;;6.40;4.20;;;15.40;99.90;;;;;;5055929;28;20090;-75
2022/07/24 02:54:16;;;;;;;5.35;4.30;;;15.40;99.90;;;;;;5054291;28;20064;-75
2022/07/24 02:56:43;;;;;;;6.90;5.18;;;15.30;99.90;;;;;;5054814;28;20095;-76
2022/07/24 02:59:10;;;;;;;5.35;4.38;;;15.40;99.90;;;;;;5055944;28;20056;-75
2022/07/24 03:01:36;;;;;;;8.20;4.53;;;15.40;99.90;;;;;;5054077;28;20092;-74
2022/07/24 03:04:05;;;;;;;5.00;4.15;;;15.30;99.90;;;;;;5054826;28;20045;-74
2022/07/24 03:06:32;;;;;;;5.40;4.70;;;15.40;99.90;;;;;;5055683;28;20131;-74
2022/07/24 03:08:59;;;;;;;8.40;4.38;;;15.30;99.90;;;;;;5054737;28;20118;-74
2022/07/24 03:11:26;;;;;;;6.03;4.90;;;15.40;99.90;;;;;;5054494;28;20175;-75
2022/07/24 03:13:52;;;;;;;5.53;4.38;;;15.30;99.90;;;;;;5054826;28;20072;-75
2022/07/24 03:16:19;;;;;;;6.40;5.20;;;15.30;99.90;;;;;;5053598;28;20102;-74
2022/07/24 03:18:48;;;;;;;6.25;4.90;;;15.30;99.90;;;;;;5054862;28;20061;-75
2022/07/24 03:21:17;;;;;;;7.50;5.43;;;15.20;99.90;;;;;;5053495;28;20140;-74
2022/07/24 03:23:44;;;;;;;5.90;5.13;;;15.30;99.90;;;;;;5053634;28;20060;-75
2022/07/24 03:26:11;;;;;;;7.57;5.00;;;15.20;99.90;;;;;;5054196;28;20132;-75
2022/07/24 03:28:38;;;;;;;6.78;4.85;;;15.30;99.90;;;;;;5054218;28;20570;-75
2022/07/24 03:31:05;;;;;;;8.68;4.95;;;15.30;99.90;;;;;;5055370;28;20044;-74
2022/07/24 03:33:32;;;;;;;6.88;4.97;;;15.30;99.90;;;;;;5054226;28;20052;-74
2022/07/24 03:35:58;;;;;;;7.88;5.30;;;15.30;99.90;;;;;;5054288;28;20107;-74
2022/07/24 03:38:27;;;;;;;7.78;5.60;;;15.30;99.90;;;;;;5054965;28;20094;-74
2022/07/24 03:40:54;;;;;;;9.95;5.20;;;15.30;99.90;;;;;;5054720;28;20045;-75
2022/07/24 03:43:21;;;;;;;7.53;5.35;;;15.40;99.90;;;;;;5054572;28;20111;-75
2022/07/24 03:45:47;;;;;;;8.57;5.18;;;15.40;99.90;;;;;;5053867;28;20061;-74
2022/07/24 03:48:14;;;;;;;7.15;5.07;;;15.40;99.90;;;;;;5054914;28;20049;-76
2022/07/24 03:50:41;;;;;;;6.00;5.10;;;15.30;99.90;;;;;;5053763;28;20081;-74
2022/07/24 03:53:08;;;;;;;6.53;4.95;;;15.40;99.90;;;;;;5055021;28;20103;-74
2022/07/24 03:55:36;;;;;;;6.47;5.28;;;15.40;99.90;;;;;;5054783;28;20053;-74
2022/07/24 03:58:03;;;;;;;7.60;5.30;;;15.40;99.90;;;;;;5053078;28;20045;-74
2022/07/24 04:00:30;;;;;;;6.60;5.03;;;15.30;99.90;;;;;;5053958;28;20088;-74
2022/07/24 04:02:57;;;;;;;8.23;5.60;;;15.40;99.90;;;;;;5052715;28;20052;-75
2022/07/24 04:05:24;;;;;;;7.65;5.60;;;15.40;99.90;;;;;;5054650;28;20099;-74
2022/07/24 04:07:51;;;;;;;8.43;5.68;;;15.40;99.90;;;;;;5054686;28;20049;-74
2022/07/24 04:10:18;;;;;;;9.73;5.60;;;15.40;99.90;;;;;;5052747;28;20057;-75
2022/07/24 04:12:46;;;;;;;6.68;5.20;;;15.40;99.90;;;;;;5053757;28;20053;-74
2022/07/24 04:15:13;;;;;;;6.53;5.05;;;15.50;99.90;;;;;;5053401;28;20171;-75
2022/07/24 04:17:41;;;;;;;7.68;6.20;;;15.50;99.90;;;;;;5053666;28;20118;-76
2022/07/24 04:20:09;;;;;;;7.70;5.95;;;15.50;99.90;;;;;;5054622;28;20053;-75
2022/07/24 04:22:36;;;;;;;6.78;5.43;;;15.50;99.90;;;;;;5053272;28;20057;-75
2022/07/24 04:25:04;;;;;;;9.38;5.63;;;15.50;99.90;;;;;;5053772;28;20451;-75
2022/07/24 04:27:30;;;;;;;6.32;5.53;;;15.50;99.90;;;;;;5053191;28;20073;-75
2022/07/24 04:29:59;;;;;;;8.90;5.97;;;15.50;99.90;;;;;;5054103;28;20119;-74
2022/07/24 04:32:26;;;;;;;6.25;5.40;;;15.50;99.90;;;;;;5052591;28;20053;-76
2022/07/24 04:34:52;;;;;;;6.63;5.50;;;15.60;99.90;;;;;;5052777;28;20053;-75
2022/07/24 04:37:19;;;;;;;6.68;5.40;;;15.60;99.90;;;;;;5054093;28;20473;-74
2022/07/24 04:39:46;;;;;;;7.38;5.05;;;15.60;99.90;;;;;;5052205;28;20056;-75
2022/07/24 04:42:14;;;;;;;6.68;4.80;;;15.60;99.90;;;;;;5054077;28;20138;-75
2022/07/24 04:44:41;;;;;;;7.85;5.20;;;15.60;99.90;;;;;;5053910;28;20056;-74
2022/07/24 04:47:09;;;;;;;6.88;5.88;;;15.60;99.90;;;;;;5052131;28;20056;-74
2022/07/24 04:49:35;;;;;;;7.28;5.25;;;15.70;99.90;;;;;;5052358;28;20080;-74
2022/07/24 04:52:02;;;;;;;7.35;5.80;;;15.70;99.90;;;;;;5052711;28;20493;-74
2022/07/24 04:54:29;;;;;;;9.02;5.88;;;15.70;99.90;;;;;;5053510;28;20558;-75
2022/07/24 04:56:56;;;;;;;7.90;5.47;;;15.80;99.90;;;;;;5052773;28;20446;-75
2022/07/24 04:59:23;;;;;;;8.82;5.68;;;15.80;99.90;;;;;;5052198;28;20053;-75
2022/07/24 05:01:50;;;;;;;7.78;5.55;;;15.80;99.90;;;;;;5053584;28;20056;-76
2022/07/24 05:04:18;;;;;;;8.95;5.20;;;16.00;99.90;;;;;;5052613;28;20041;-74
2022/07/24 05:06:46;;;;;;;7.55;5.20;;;16.10;99.90;;;;;;5053091;28;20396;-75
2022/07/24 05:09:13;;;;;;;9.93;5.45;;;16.20;99.90;;;;;;5058085;28;20121;-75
2022/07/24 05:11:40;;;;;;;8.25;5.85;;;16.30;99.90;;;;;;5060543;28;20051;-75
2022/07/24 05:14:07;;;;;;;6.88;5.00;;;16.50;99.90;;;;;;5055324;28;20044;-75
2022/07/24 05:16:34;;;;;;;7.32;5.35;;;16.70;99.90;;;;;;5054510;28;20061;-75
2022/07/24 05:19:00;;;;;;;8.50;6.10;;;16.90;99.90;;;;;;5053689;28;20073;-74
2022/07/24 05:21:29;;;;;;;8.38;4.80;;;16.90;99.90;;;;;;5052885;28;20057;-75
2022/07/24 05:23:56;;;;;;;6.57;5.43;;;17.00;99.90;;;;;;5052312;28;20084;-75
2022/07/24 05:26:23;;;;;;;6.88;5.35;;;17.10;99.90;;;;;;5051725;28;20136;-75
2022/07/24 05:28:49;;;;;;;7.35;5.25;;;17.20;99.90;;;;;;5051032;28;20099;-74
2022/07/24 05:31:16;;;;;;;8.63;5.68;;;17.30;99.90;;;;;;5052984;28;20105;-75
2022/07/24 05:33:43;;;;;;;8.07;5.43;;;17.30;99.90;;;;;;5053303;28;20045;-75
2022/07/24 05:36:10;;;;;;;6.22;5.25;;;17.40;99.90;;;;;;5052043;28;20049;-75
2022/07/24 05:38:40;;;;;;;8.00;6.10;;;17.50;99.90;;;;;;5052311;28;20057;-75
2022/07/24 05:41:06;;;;;;;8.43;5.00;;;17.50;99.90;;;;;;5052405;28;20057;-76
2022/07/24 05:43:34;;;;;;;7.30;5.88;;;17.70;99.90;;;;;;5051579;28;20102;-74
2022/07/24 05:46:01;;;;;;;7.28;5.57;;;17.80;99.90;;;;;;5051865;28;20449;-75
2022/07/24 05:48:27;;;;;;;9.80;6.22;;;17.90;99.90;;;;;;5051015;28;20554;-75
2022/07/24 05:50:54;;;;;;;7.88;6.25;;;17.90;99.90;;;;;;5052845;28;20049;-75
2022/07/24 05:53:21;;;;;;;11.45;6.18;;;18.00;99.90;;;;;;5051781;28;20051;-74
2022/07/24 05:55:50;;;;;;;8.27;6.43;;;18.10;99.90;;;;;;5050990;28;20088;-75
2022/07/24 05:58:18;;;;;;;9.27;6.22;;;18.20;99.90;;;;;;5051701;28;20044;-75
2022/07/24 06:00:45;;;;;;;11.82;5.75;;;18.20;99.90;;;;;;5053019;28;20048;-75
2022/07/24 06:03:12;;;;;;;8.43;6.20;;;18.40;99.90;;;;;;5051143;28;20200;-75
2022/07/24 06:05:38;;;;;;;8.13;5.68;;;18.70;99.90;;;;;;5052345;28;20052;-74
2022/07/24 06:08:06;;;;;;;9.80;6.72;;;18.90;99.90;;;;;;5051194;28;20091;-75
2022/07/24 06:10:33;;;;;;;10.98;6.18;;;19.10;99.90;;;;;;5050850;28;20111;-75
2022/07/24 06:13:01;;;;;;;8.40;6.68;;;19.30;99.90;;;;;;5055014;28;20183;-74
2022/07/24 06:15:28;;;;;;;7.78;6.90;;;19.50;99.90;;;;;;5055559;28;20111;-73
2022/07/24 06:17:55;;;;;;;8.25;6.60;;;19.60;99.90;;;;;;5054724;28;20041;-73
2022/07/24 06:20:22;;;;;;;8.18;6.57;;;19.80;99.90;;;;;;5055878;28;20049;-74
2022/07/24 06:22:49;;;;;;;8.98;7.05;;;19.90;99.90;;;;;;5055290;28;20045;-74
2022/07/24 06:25:17;;;;;;;8.98;6.78;;;20.10;99.90;;;;;;5055862;28;20095;-74
2022/07/24 06:27:45;;;;;;;17.67;7.75;;;20.30;99.90;;;;;;5055694;28;20175;-76
2022/07/24 06:30:15;;;;;;;11.23;7.13;;;20.40;99.90;;;;;;5055886;28;20474;-75
2022/07/24 06:32:43;;;;;;;10.73;7.38;;;20.60;99.90;;;;;;5054909;28;20053;-75
2022/07/24 06:35:10;;;;;;;10.55;8.23;;;20.70;99.90;;;;;;5055675;28;20144;-76
2022/07/24 06:37:37;;;;;;;9.18;6.70;;;20.70;99.90;;;;;;5054777;28;20068;-75
2022/07/24 06:40:05;;;;;;;10.73;7.10;;;20.90;99.90;;;;;;5056045;28;20523;-75
2022/07/24 06:42:32;;;;;;;9.98;7.65;;;21.10;99.90;;;;;;5055938;28;20448;-75
2022/07/24 06:44:59;;;;;;;10.05;7.90;;;21.30;99.90;;;;;;5054718;28;20122;-75
2022/07/24 06:47:27;;;;;;;8.82;7.90;;;21.50;99.90;;;;;;5055083;28;20045;-75
2022/07/24 06:49:54;;;;;;;13.43;8.32;;;21.80;99.90;;;;;;5049846;28;20134;-75
2022/07/24 06:52:21;;;;;;;9.88;7.88;;;22.10;99.90;;;;;;5031419;28;20061;-75
2022/07/24 06:54:48;;;;;;;13.50;7.75;;;22.50;99.90;;;;;;5045789;28;20065;-75
2022/07/24 06:57:16;;;;;;;11.98;7.57;;;22.90;99.90;;;;;;5048452;28;20512;-76
2022/07/24 06:59:43;;;;;;;11.38;7.65;;;23.10;99.90;;;;;;5047064;28;20041;-75
2022/07/24 07:02:10;;;;;;;10.30;7.50;;;23.40;99.90;;;;;;5048515;28;20501;-75
2022/07/24 07:04:38;;;;;;;11.05;8.40;;;23.60;99.90;;;;;;5047513;28;20045;-76
2022/07/24 07:07:05;;;;;;;10.82;7.97;;;24.10;99.90;;;;;;5049002;28;20049;-75
2022/07/24 07:09:32;;;;;;;9.68;8.00;;;24.40;99.90;;;;;;5051310;28;20089;-75
2022/07/24 07:11:59;;;;;;;9.73;7.97;;;24.60;99.90;;;;;;5049333;28;20416;-76
2022/07/24 07:14:26;;;;;;;10.23;7.45;;;24.90;99.90;;;;;;5052407;28;20044;-76
2022/07/24 07:16:53;;;;;;;10.48;7.50;;;24.80;99.90;;;;;;5045957;28;20497;-75
2022/07/24 07:19:19;;;;;;;9.90;7.25;;;24.80;99.90;;;;;;5064405;28;20044;-73
2022/07/24 07:21:48;;;;;;;7.93;7.10;;;24.90;99.90;;;;;;5050297;28;20041;-75
2022/07/24 07:24:15;;;;;;;10.70;7.90;;;25.10;99.90;;;;;;5047991;28;20080;-75
2022/07/24 07:26:41;;;;;;;8.05;6.60;;;25.60;99.90;;;;;;5050208;28;20104;-75
2022/07/24 07:29:08;;;;;;;13.02;7.10;;;26.00;99.30;;;;;;5046441;28;20094;-74
2022/07/24 07:31:35;;;;;;;8.48;7.10;;;26.50;98.80;;;;;;5046961;28;20497;-74
2022/07/24 07:34:02;;;;;;;9.70;6.72;;;26.80;97.40;;;;;;5046464;28;20049;-75
2022/07/24 07:36:29;;;;;;;7.20;6.25;;;27.20;97.00;;;;;;5048336;28;20666;-74
2022/07/24 07:38:57;;;;;;;9.35;5.35;;;27.80;96.20;;;;;;5049285;28;20041;-75
2022/07/24 07:41:24;;;;;;;6.50;4.47;;;28.40;94.30;;;;;;5048148;28;20056;-75
2022/07/24 07:43:51;;;;;;;6.75;4.70;;;28.20;93.40;;;;;;5049329;28;20859;-75
2022/07/24 07:46:18;;;;;;;5.85;4.22;;;27.80;93.30;;;;;;5049318;28;20059;-73
2022/07/24 07:48:45;;;;;;;3.58;2.95;;;26.90;93.20;;;;;;5048316;28;20132;-75
2022/07/24 07:51:12;;;;;;;7.30;3.47;;;26.40;93.50;;;;;;5048941;28;20053;-75
2022/07/24 07:53:39;;;;;;;5.43;3.20;;;26.10;93.50;;;;;;5047305;28;20443;-75
2022/07/24 07:56:08;;;;;;;6.70;3.75;;;25.70;93.90;;;;;;5050883;28;20118;-75
2022/07/24 07:58:35;;;;;;;6.40;3.40;;;25.60;94.20;;;;;;5049059;28;20046;-74
2022/07/24 08:01:01;;;;;;;5.60;3.50;;;25.40;94.30;;;;;;5062174;28;20061;-76
2022/07/24 08:03:28;;;;;;;7.20;3.97;;;25.40;94.60;;;;;;5050507;28;20558;-75
2022/07/24 08:05:55;;;;;;;4.63;3.50;;;25.20;94.40;;;;;;5044436;28;20128;-75
2022/07/24 08:08:22;;;;;;;6.28;3.65;;;25.40;94.40;;;;;;5043372;28;20127;-75
2022/07/24 08:10:49;;;;;;;6.97;3.70;;;25.70;94.10;;;;;;5041181;28;20048;-76
2022/07/24 08:13:17;;;;;;;4.28;3.28;;;25.90;94.10;;;;;;5043924;28;20045;-76
2022/07/24 08:15:44;;;;;;;6.47;3.60;;;26.60;93.80;;;;;;5046954;28;20053;-75
2022/07/24 08:18:11;;;;;;;5.20;3.85;;;27.60;93.30;;;;;;5044729;28;20049;-75
2022/07/24 08:20:38;;;;;;;6.18;3.70;;;28.40;92.20;;;;;;5049882;28;20051;-75
2022/07/24 08:23:05;;;;;;;5.00;3.13;;;28.70;91.70;;;;;;5063400;28;20509;-75
2022/07/24 08:25:32;;;;;;;3.25;2.80;;;28.50;90.80;;;;;;5046380;28;20052;-74
2022/07/24 08:27:59;;;;;;;4.72;3.33;;;28.50;91.30;;;;;;5044910;28;20057;-73
2022/07/24 08:30:27;;;;;;;5.15;3.67;;;28.30;90.50;;;;;;5048458;28;20516;-74
2022/07/24 08:32:54;;;;;;;4.15;3.45;;;28.20;90.70;;;;;;5045884;28;20048;-75
2022/07/24 08:35:20;;;;;;;5.40;3.15;;;27.90;90.80;;;;;;5049187;28;20505;-74
2022/07/24 08:37:47;;;;;;;5.05;3.22;;;27.60;90.80;;;;;;5046032;28;20081;-74
2022/07/24 08:40:15;;;;;;;6.07;3.30;;;27.70;91.00;;;;;;5046835;28;20041;-75
2022/07/24 08:42:42;;;;;;;4.93;3.50;;;27.70;91.30;;;;;;5045545;28;20107;-76
2022/07/24 08:45:10;;;;;;;7.10;3.70;;;27.50;91.30;;;;;;5047304;28;20386;-75
2022/07/24 08:47:40;;;;;;;4.30;3.13;;;27.30;91.30;;;;;;5045903;28;20049;-73
2022/07/24 08:50:08;;;;;;;5.57;3.17;;;27.60;91.50;;;;;;5049857;28;20461;-75
2022/07/24 08:52:36;;;;;;;4.60;3.10;;;27.90;91.30;;;;;;5044508;28;20558;-75
2022/07/24 08:55:04;;;;;;;4.50;2.95;;;27.90;90.90;;;;;;5042961;28;20463;-75
2022/07/24 08:57:34;;;;;;;5.95;3.25;;;27.90;90.80;;;;;;5042020;28;20123;-75
2022/07/24 09:00:01;;;;;;;6.15;3.08;;;27.80;90.60;;;;;;5046047;28;20102;-73
2022/07/24 09:02:28;;;;;;;6.45;3.20;;;27.80;90.80;;;;;;5046321;28;20111;-74
2022/07/24 09:05:01;;;;;;;4.80;2.85;;;27.80;90.90;;;;;;5047055;28;20128;-75
2022/07/24 09:07:29;;;;;;;4.72;3.15;;;28.20;90.70;;;;;;5061739;28;20094;-75
2022/07/24 09:10:01;;;;;;;5.85;3.05;;;28.50;90.30;;;;;;5045550;28;20102;-74
2022/07/24 09:12:32;;;;;;;6.15;2.80;;;28.60;88.50;;;;;;5050235;28;20068;-74
2022/07/24 09:15:00;;;;;;;4.25;2.80;;;28.40;89.10;;;;;;5046335;28;20084;-75
2022/07/24 09:17:29;;;;;;;5.53;3.28;;;28.30;89.30;;;;;;5043055;28;20072;-74
2022/07/24 09:19:57;;;;;;;5.43;3.00;;;28.30;89.70;;;;;;5047100;28;20056;-75
2022/07/24 09:22:35;;;;;;;3.83;2.38;;;29.00;90.10;;;;;;5045666;28;20045;-74
2022/07/24 09:25:12;;;;;;;4.53;2.97;;;30.10;89.30;;;;;;5045860;28;20111;-76
2022/07/24 09:27:40;;;;;;;6.22;2.90;;;30.70;86.60;;;;;;5043361;28;20049;-76
2022/07/24 09:30:08;;;;;;;5.43;3.05;;;31.20;86.20;;;;;;5050647;28;20037;-76
2022/07/24 09:32:36;;;;;;;4.10;2.78;;;31.10;85.10;;;;;;5045242;28;20454;-75
2022/07/24 09:35:04;;;;;;;6.05;2.83;;;31.10;84.80;;;;;;5042046;28;20053;-75
2022/07/24 09:37:33;;;;;;;4.40;2.78;;;31.20;83.40;;;;;;5043906;28;20115;-77
2022/07/24 09:40:08;;;;;;;6.43;2.40;;;31.40;82.80;;;;;;5060823;28;20077;-75
2022/07/24 09:42:38;;;;;;;4.13;2.53;;;31.80;81.40;;;;;;5043291;28;20049;-76
2022/07/24 09:45:08;;;;;;;5.82;2.30;;;32.10;81.60;;;;;;5044923;28;20136;-75
2022/07/24 09:47:35;;;;;;;7.55;2.53;;;32.00;81.30;;;;;;5044018;28;20098;-76
2022/07/24 09:50:13;;;;;;;3.83;2.15;;;31.40;80.80;;;;;;5047202;28;20037;-77
2022/07/24 09:52:42;;;;;;;3.42;1.92;;;31.30;81.10;;;;;;5045402;28;20076;-76
2022/07/24 09:55:21;;;;;;;2.92;1.85;;;31.10;80.60;;;;;;5061187;28;20052;-76
2022/07/24 09:57:48;;;;;;;6.53;2.03;;;30.70;79.60;;;;;;5044526;28;20049;-75
2022/07/24 10:00:16;;;;;;;4.63;1.90;;;30.90;81.30;;;;;;5049548;28;20045;-75
2022/07/24 10:02:45;;;;;;;4.97;2.80;;;31.30;81.00;;;;;;5046337;28;20053;-75
2022/07/24 10:05:14;;;;;;;5.32;2.20;;;31.70;80.00;;;;;;5045071;28;20091;-77
2022/07/24 10:07:43;;;;;;;3.33;2.13;;;31.60;78.90;;;;;;5041775;28;20065;-75
2022/07/24 10:10:11;;;;;;;4.65;2.13;;;31.50;79.40;;;;;;5043770;28;20053;-75
2022/07/24 10:12:38;;;;;;;5.53;2.08;;;31.70;79.60;;;;;;5047372;28;20496;-76
2022/07/24 10:15:07;;;;;;;3.00;1.92;;;31.50;79.20;;;;;;5037426;28;20041;-75
2022/07/24 10:17:56;;;;;;;4.53;1.97;;;31.20;79.40;;;;;;5048228;28;20468;-75
2022/07/24 10:20:37;;;;;;;3.50;2.03;;;30.70;78.40;;;;;;5034818;28;20837;-75
2022/07/24 10:23:07;;;;;;;7.28;2.25;;;30.10;79.50;;;;;;5051130;28;20110;-74
2022/07/24 10:25:48;;;;;;;4.43;2.17;;;29.70;80.60;;;;;;5046107;28;20045;-75
2022/07/24 10:28:35;;;;;;;3.67;2.20;;;29.50;80.20;;;;;;5047915;28;20045;-76
2022/07/24 10:31:04;;;;;;;3.13;1.95;;;29.10;81.30;;;;;;5039638;28;20087;-75
2022/07/24 10:33:31;;;;;;;4.23;2.03;;;29.20;81.60;;;;;;5045510;28;20049;-73
2022/07/24 10:36:01;;;;;;;3.08;2.10;;;29.30;82.10;;;;;;5043239;28;20045;-73
2022/07/24 10:38:34;;;;;;;3.50;1.88;;;30.10;81.70;;;;;;5041303;28;20469;-75
2022/07/24 10:41:06;;;;;;;2.47;1.95;;;30.70;78.50;;;;;;5039714;28;20061;-74
2022/07/24 10:43:33;;;;;;;3.67;1.90;;;31.00;78.10;;;;;;5036744;28;20053;-75
2022/07/24 10:46:14;;;;;;;8.30;2.08;;;31.60;77.60;;;;;;5041525;28;20103;-75
2022/07/24 10:48:41;;;;;;;4.20;2.28;;;31.90;75.40;;;;;;5046868;28;20045;-74
2022/07/24 10:51:14;;;;;;;6.00;1.83;;;31.30;75.80;;;;;;5041780;28;20060;-74
2022/07/24 10:53:52;;;;;;;4.80;2.17;;;31.00;75.90;;;;;;5045361;28;20386;-75
2022/07/24 10:56:25;;;;;;;3.37;1.93;;;30.50;76.80;;;;;;5043896;28;20064;-75
2022/07/24 10:58:54;;;;;;;4.10;2.00;;;30.30;77.50;;;;;;5047639;28;20098;-75
2022/07/24 11:01:36;;;;;;;6.85;2.20;;;29.90;77.90;;;;;;5048605;28;20085;-75
2022/07/24 11:04:24;;;;;;;3.58;1.90;;;29.70;78.90;;;;;;5047170;28;20119;-76
2022/07/24 11:06:53;;;;;;;4.90;2.00;;;30.00;79.10;;;;;;5064014;28;20053;-75
2022/07/24 11:09:22;;;;;;;3.17;1.70;;;31.00;78.10;;;;;;5046357;28;20046;-75
2022/07/24 11:12:06;;;;;;;2.85;1.85;;;31.60;77.70;;;;;;5050054;28;20041;-74
2022/07/24 11:14:50;;;;;;;4.47;2.33;;;32.00;77.20;;;;;;5051788;28;20056;-75
2022/07/24 11:17:36;;;;;;;3.75;2.17;;;32.40;77.20;;;;;;5048491;28;20045;-77
2022/07/24 11:20:05;;;;;;;3.13;2.17;;;32.40;75.00;;;;;;5051468;28;20107;-73
2022/07/24 11:22:40;;;;;;;7.05;2.10;;;32.70;75.80;;;;;;5047477;28;20103;-75
2022/07/24 11:25:10;;;;;;;5.13;2.15;;;32.70;75.50;;;;;;5044673;28;20110;-76
2022/07/24 11:27:56;;;;;;;4.05;1.88;;;33.20;74.50;;;;;;5044828;28;20049;-74
2022/07/24 11:30:24;;;;;;;2.95;1.98;;;33.50;74.20;;;;;;5050001;28;20441;-76
2022/07/24 11:32:51;;;;;;;4.22;2.03;;;33.50;74.00;;;;;;5048937;28;20102;-76
2022/07/24 11:35:17;;;;;;;4.65;2.05;;;33.10;73.30;;;;;;5046795;28;20108;-76
2022/07/24 11:37:46;;;;;;;3.42;1.83;;;32.90;71.60;;;;;;5045739;28;20158;-75
2022/07/24 11:40:18;;;;;;;3.47;2.00;;;32.90;71.30;;;;;;5045060;28;20067;-76
2022/07/24 11:42:44;;;;;;;3.20;1.80;;;32.90;71.50;;;;;;5051124;28;20428;-75
2022/07/24 11:45:12;;;;;;;3.80;2.15;;;33.20;71.90;;;;;;5046135;28;20393;-75
2022/07/24 11:47:39;;;;;;;6.43;2.03;;;33.20;71.50;;;;;;5048294;28;20467;-76
2022/07/24 11:50:07;;;;;;;2.65;1.70;;;32.50;71.30;;;;;;5053046;28;20053;-75
2022/07/24 11:52:36;;;;;;;5.45;1.80;;;32.50;71.50;;;;;;5062956;28;20123;-75
2022/07/24 11:55:09;;;;;;;3.78;1.90;;;32.50;71.60;;;;;;5046194;28;20061;-76
2022/07/24 11:57:38;;;;;;;6.97;1.90;;;32.40;70.40;;;;;;5047407;28;20110;-76
2022/07/24 12:00:10;;;;;;;2.55;1.80;;;32.70;70.20;;;;;;5051268;28;20056;-77
2022/07/24 12:02:37;;;;;;;2.97;1.60;;;33.00;71.10;;;;;;5062173;28;20448;-76
2022/07/24 12:05:04;;;;;;;3.38;1.80;;;33.00;70.70;;;;;;5049284;28;20046;-75
2022/07/24 12:07:32;;;;;;;4.30;1.80;;;33.10;70.80;;;;;;5047161;28;20057;-74
2022/07/24 12:10:00;;;;;;;4.20;2.00;;;33.00;70.80;;;;;;5046855;28;20069;-76
2022/07/24 12:12:29;;;;;;;4.45;2.00;;;33.10;71.00;;;;;;5044050;28;20072;-74
2022/07/24 12:15:05;;;;;;;2.47;1.60;;;33.00;71.50;;;;;;5050343;28;20485;-76
2022/07/24 12:17:33;;;;;;;4.28;2.15;;;32.90;71.00;;;;;;5052908;28;20056;-77
2022/07/24 12:20:03;;;;;;;4.78;2.00;;;32.90;71.80;;;;;;5055462;28;20068;-76
2022/07/24 12:22:30;;;;;;;3.60;1.77;;;33.20;71.00;;;;;;5069581;28;20102;-76
2022/07/24 12:24:58;;;;;;;3.22;1.90;;;33.30;71.30;;;;;;5054959;28;20522;-77
2022/07/24 12:27:40;;;;;;;3.92;1.60;;;33.40;69.90;;;;;;5053491;28;20136;-76
2022/07/24 12:30:20;;;;;;;3.15;1.90;;;33.60;69.00;;;;;;5053117;28;20045;-76
2022/07/24 12:33:04;;;;;;;3.25;1.60;;;33.70;68.80;;;;;;5055067;28;20087;-77
2022/07/24 12:35:32;;;;;;;3.30;1.80;;;34.00;67.90;;;;;;5055136;28;20091;-76
2022/07/24 12:38:02;;;;;;;4.05;1.95;;;33.60;68.30;;;;;;5054166;28;20064;-76
2022/07/24 12:40:32;;;;;;;3.25;1.92;;;33.50;68.00;;;;;;5070741;28;20370;-77
2022/07/24 12:43:04;;;;;;;3.80;1.67;;;33.30;67.30;;;;;;5055183;28;20064;-76
2022/07/24 12:45:32;;;;;;;6.05;2.10;;;33.10;67.90;;;;;;5053806;28;20053;-76
2022/07/24 12:48:20;;;;;;;5.40;1.80;;;32.80;68.10;;;;;;5054100;28;20057;-76
2022/07/24 12:51:02;;;;;;;2.72;1.85;;;32.80;69.40;;;;;;5051828;28;20447;-76
2022/07/24 12:53:31;;;;;;;5.85;2.03;;;32.50;69.80;;;;;;5052828;28;20378;-77